Council Hill, Oklahoma
Current Conditions -  °F | °C
As of 11:53 AM on Tuesday 21 Oct 2014 (Local Time) from KMKO Reporting Station
Clear Clear  
Wind Chill: 73°   Ceiling: Unl
Heat Index: 73°   Visibility: 10mi
Dew Point: 61°   Wind: 7mph
Humidity: 66%   Direction: 170°S
Pressure: 30.13"   Gusts: NA
Location:  35.56°N, 95.65°W
Report Text: KMKO 211653Z AUTO 17006KT 10SM CLR 23/16 A3013 RMK AO2 SLP200 T02280161
Loading
Personal Weather Stations






























Interactive Weather Map
Tropical Storm Tracking
New forecast layout! Learn more

10-Day Weather Forecast

Advertisements
Track Severe Weather on mobile